Lowell, Washington
Current Conditions -  °F | °C
As of 10:53 PM on Tuesday 21 Oct 2014 (Local Time) from KPAE Reporting Station
Light Rain Light Rain  
Wind Chill: 57°   Ceiling: 7000
Heat Index: 57°   Visibility: 10mi
Dew Point: 46°   Wind: 12mph
Humidity: 67%   Direction: 150°SSE
Pressure: 29.76"   Gusts: NA
Location:  47.9451°N, 122.226°W
Report Text: KPAE 220553Z AUTO 15010KT 10SM -RA FEW049 OVC070 14/08 A2976 RMK AO2 SLP079 P0000 60001 T01390078 10150 20139 56019
Loading
Personal Weather Stations






























Interactive Weather Map
Tropical Storm Tracking
New forecast layout! Learn more

10-Day Weather Forecast

Advertisements
Track Severe Weather on mobile